createdAt,value
2022-12-17T00:02:43.936Z,40.70
2022-12-17T00:05:29.967Z,40.57
2022-12-17T00:08:19.709Z,44.47
2022-12-17T00:11:06.046Z,43.00
2022-12-17T00:13:51.922Z,40.50
2022-12-17T00:16:38.112Z,45.90
2022-12-17T00:19:24.352Z,41.37
2022-12-17T00:22:10.484Z,40.50
2022-12-17T00:24:56.528Z,44.23
2022-12-17T00:27:42.470Z,42.73
2022-12-17T00:30:31.778Z,41.37
2022-12-17T00:33:17.754Z,41.83
2022-12-17T00:36:10.170Z,40.83
2022-12-17T00:38:56.725Z,41.23
2022-12-17T00:41:42.698Z,41.57
2022-12-17T00:44:29.821Z,41.63
2022-12-17T00:47:15.517Z,37.87
2022-12-17T00:50:04.770Z,37.73
2022-12-17T00:52:51.407Z,38.93
2022-12-17T00:55:39.508Z,40.23
2022-12-17T00:58:25.408Z,38.37
2022-12-17T01:01:16.417Z,43.07
2022-12-17T01:04:02.790Z,40.17
2022-12-17T01:06:49.382Z,36.53
2022-12-17T01:09:35.533Z,41.13
2022-12-17T01:12:21.709Z,39.17
2022-12-17T01:15:07.765Z,36.53
2022-12-17T01:17:53.955Z,39.80
2022-12-17T01:20:42.424Z,39.63
2022-12-17T01:23:28.915Z,40.57
2022-12-17T01:26:16.077Z,39.83
2022-12-17T01:29:02.512Z,39.47
2022-12-17T01:31:48.520Z,41.40
2022-12-17T01:34:36.838Z,40.80
2022-12-17T01:37:23.831Z,36.53
2022-12-17T01:40:12.894Z,37.23
2022-12-17T01:43:01.882Z,39.87
2022-12-17T01:45:56.994Z,40.17
2022-12-17T01:48:51.961Z,43.67
2022-12-17T01:51:40.502Z,39.90
2022-12-17T01:54:26.488Z,38.20
2022-12-17T01:57:18.386Z,38.93
2022-12-17T02:00:21.406Z,42.23
2022-12-17T02:03:07.193Z,36.37
2022-12-17T02:06:14.910Z,37.97
2022-12-17T02:09:16.293Z,39.80
2022-12-17T02:12:31.887Z,41.60
2022-12-17T02:15:33.435Z,36.50
2022-12-17T02:18:24.084Z,39.40
2022-12-17T02:21:12.563Z,39.63
2022-12-17T02:24:30.795Z,38.23
2022-12-17T02:27:23.512Z,37.63
2022-12-17T02:30:13.785Z,38.60
2022-12-17T02:33:02.919Z,38.87
2022-12-17T02:36:16.049Z,37.57
2022-12-17T02:39:02.278Z,36.60
2022-12-17T02:41:55.412Z,39.53
2022-12-17T02:44:42.422Z,38.53
2022-12-17T02:47:29.921Z,38.20
2022-12-17T02:50:15.974Z,40.73
2022-12-17T02:53:07.195Z,37.87
2022-12-17T02:55:55.202Z,35.97
2022-12-17T02:58:42.225Z,36.23
2022-12-17T03:01:28.476Z,34.13
2022-12-17T03:04:14.434Z,34.97
2022-12-17T03:07:03.645Z,34.27
2022-12-17T03:09:49.511Z,35.60
2022-12-17T03:12:36.810Z,34.67
2022-12-17T03:15:23.129Z,34.80
2022-12-17T03:18:09.133Z,34.20
2022-12-17T03:20:55.191Z,37.40
2022-12-17T03:23:41.220Z,35.80
2022-12-17T03:26:27.712Z,35.97
2022-12-17T03:29:13.849Z,34.43
2022-12-17T03:31:59.730Z,35.10
2022-12-17T03:34:45.546Z,35.63
2022-12-17T03:37:31.364Z,35.10
2022-12-17T03:40:17.176Z,35.27
2022-12-17T03:43:03.064Z,34.37
2022-12-17T03:45:48.950Z,35.07
2022-12-17T03:48:35.216Z,32.33
2022-12-17T03:51:21.180Z,33.77
2022-12-17T03:54:07.277Z,32.57
2022-12-17T03:56:53.369Z,30.47
2022-12-17T03:59:39.299Z,29.13
2022-12-17T04:02:25.508Z,28.87
2022-12-17T04:05:16.527Z,30.17
2022-12-17T04:08:06.205Z,29.03
2022-12-17T04:10:52.246Z,30.97
2022-12-17T04:13:41.351Z,30.07
2022-12-17T04:16:31.772Z,29.70
2022-12-17T04:19:17.837Z,31.67
2022-12-17T04:22:04.262Z,29.27
2022-12-17T04:24:50.065Z,30.83
2022-12-17T04:27:35.954Z,30.77
2022-12-17T04:30:25.285Z,32.27
2022-12-17T04:33:11.382Z,30.27
2022-12-17T04:36:07.972Z,31.37
2022-12-17T04:38:54.046Z,32.87
2022-12-17T04:41:40.685Z,33.57
2022-12-17T04:44:26.686Z,30.97
2022-12-17T04:47:12.777Z,31.23
2022-12-17T04:49:58.874Z,33.07
2022-12-17T04:52:45.033Z,32.47
2022-12-17T04:55:31.042Z,32.43
2022-12-17T04:58:24.692Z,34.70
2022-12-17T05:01:11.977Z,37.23
2022-12-17T05:03:59.012Z,31.47
2022-12-17T05:06:45.014Z,32.33
2022-12-17T05:09:30.873Z,34.20
2022-12-17T05:12:17.003Z,33.87
2022-12-17T05:15:03.650Z,38.77
2022-12-17T05:17:49.980Z,34.03
2022-12-17T05:20:35.784Z,32.53
2022-12-17T05:23:29.096Z,36.43
2022-12-17T05:26:24.042Z,36.07
2022-12-17T05:29:15.461Z,39.23
2022-12-17T05:32:01.697Z,35.80
2022-12-17T05:34:47.873Z,37.37
2022-12-17T05:37:34.325Z,37.60
2022-12-17T05:40:20.458Z,37.77
2022-12-17T05:43:17.811Z,30.50
2022-12-17T05:46:04.777Z,33.40
2022-12-17T05:48:53.313Z,31.13
2022-12-17T05:51:40.285Z,35.73
2022-12-17T05:54:26.938Z,36.83
2022-12-17T05:57:13.654Z,35.43
2022-12-17T05:59:59.615Z,32.40
2022-12-17T06:02:45.831Z,31.80
2022-12-17T06:05:32.097Z,30.43
2022-12-17T06:08:25.850Z,30.93
2022-12-17T06:11:13.043Z,30.87
2022-12-17T06:13:58.916Z,32.87
2022-12-17T06:16:44.982Z,31.57
2022-12-17T06:19:31.318Z,31.67
2022-12-17T06:22:17.395Z,32.53
2022-12-17T06:25:03.683Z,32.83
2022-12-17T06:27:49.481Z,34.53
2022-12-17T06:30:35.867Z,29.83
2022-12-17T06:33:31.344Z,30.37
2022-12-17T06:36:22.375Z,33.37
2022-12-17T06:39:09.341Z,32.83
2022-12-17T06:42:02.198Z,29.07
2022-12-17T06:44:50.475Z,34.60
2022-12-17T06:47:37.232Z,34.57
2022-12-17T06:50:24.084Z,34.13
2022-12-17T06:53:20.674Z,32.33
2022-12-17T06:56:06.881Z,31.70
2022-12-17T06:58:52.942Z,32.37
2022-12-17T07:01:39.024Z,31.53
2022-12-17T07:04:25.540Z,35.20
2022-12-17T07:07:11.473Z,36.87
2022-12-17T07:09:57.404Z,33.33
2022-12-17T07:12:43.341Z,32.53
2022-12-17T07:15:30.037Z,38.67
2022-12-17T07:18:17.681Z,33.53
2022-12-17T07:21:04.305Z,39.57
2022-12-17T07:23:50.417Z,37.90
2022-12-17T07:26:36.319Z,40.07
2022-12-17T07:29:22.306Z,37.77
2022-12-17T07:32:08.389Z,37.67
2022-12-17T07:34:54.659Z,33.80
2022-12-17T07:37:40.726Z,36.70
2022-12-17T07:40:27.140Z,37.97
2022-12-17T07:43:13.132Z,38.33
2022-12-17T07:45:59.121Z,41.57
2022-12-17T07:48:45.062Z,38.87
2022-12-17T07:51:31.168Z,38.87
2022-12-17T07:54:30.982Z,46.27
2022-12-17T07:57:16.908Z,43.40
2022-12-17T08:00:03.250Z,40.60
2022-12-17T08:02:50.987Z,47.20
2022-12-17T08:05:37.265Z,45.53
2022-12-17T08:08:27.643Z,40.27
2022-12-17T08:11:13.574Z,39.70
2022-12-17T08:14:03.954Z,39.43
2022-12-17T08:16:49.969Z,39.13
2022-12-17T08:19:36.162Z,37.13
2022-12-17T08:22:22.026Z,38.87
2022-12-17T08:25:07.927Z,42.07
2022-12-17T08:27:53.943Z,38.87
2022-12-17T08:30:40.017Z,40.00
2022-12-17T08:33:25.745Z,39.87
2022-12-17T08:36:30.061Z,40.50
2022-12-17T08:39:16.193Z,37.80
2022-12-17T08:42:04.523Z,37.87
2022-12-17T08:44:50.889Z,37.60
2022-12-17T08:47:37.010Z,40.30
2022-12-17T08:50:23.818Z,35.70
2022-12-17T08:53:40.304Z,42.13
2022-12-17T08:56:26.308Z,34.20
2022-12-17T08:59:12.341Z,39.83
2022-12-17T09:01:59.853Z,36.93
2022-12-17T09:04:45.752Z,36.83
2022-12-17T09:07:31.530Z,38.47
2022-12-17T09:10:18.006Z,36.27
2022-12-17T09:13:05.213Z,36.07
2022-12-17T09:15:51.647Z,37.77
2022-12-17T09:18:39.451Z,35.47
2022-12-17T09:21:26.266Z,34.10
2022-12-17T09:24:12.189Z,35.13
2022-12-17T09:26:57.960Z,33.17
2022-12-17T09:29:43.918Z,33.47
2022-12-17T09:32:29.995Z,35.40
2022-12-17T09:35:16.075Z,31.37
2022-12-17T09:38:02.219Z,34.00
2022-12-17T09:40:49.169Z,30.80
2022-12-17T09:44:13.159Z,34.43
2022-12-17T09:47:10.610Z,32.10
2022-12-17T09:50:01.377Z,34.60
2022-12-17T09:52:59.445Z,32.33
2022-12-17T09:55:58.266Z,33.13
2022-12-17T09:58:46.982Z,32.83
2022-12-17T10:01:53.916Z,35.87
2022-12-17T10:04:55.790Z,32.03
2022-12-17T10:07:46.653Z,37.40
2022-12-17T10:10:42.285Z,29.73
2022-12-17T10:13:33.341Z,31.70
2022-12-17T10:16:19.583Z,31.73
2022-12-17T10:19:06.428Z,31.07
2022-12-17T10:21:54.838Z,34.37
2022-12-17T10:24:40.773Z,28.23
2022-12-17T10:27:30.170Z,32.67
2022-12-17T10:30:16.176Z,28.93
2022-12-17T10:33:02.086Z,33.47
2022-12-17T10:35:55.988Z,32.23
2022-12-17T10:38:47.884Z,31.57
2022-12-17T10:41:49.060Z,29.57
2022-12-17T10:44:45.054Z,30.47
2022-12-17T10:47:36.484Z,32.00
2022-12-17T10:50:39.769Z,32.57
2022-12-17T10:53:42.591Z,30.10
2022-12-17T10:56:41.085Z,33.17
2022-12-17T10:59:31.955Z,33.30
2022-12-17T11:02:18.469Z,34.67
2022-12-17T11:05:12.670Z,34.17
2022-12-17T11:08:01.266Z,32.13
2022-12-17T11:10:50.250Z,35.10
2022-12-17T11:13:43.088Z,33.17
2022-12-17T11:16:51.128Z,38.83
2022-12-17T11:19:56.442Z,34.87
2022-12-17T11:22:58.241Z,34.77
2022-12-17T11:26:12.057Z,36.57
2022-12-17T11:28:58.374Z,36.77
2022-12-17T11:31:47.317Z,41.23
2022-12-17T11:34:51.790Z,37.00
2022-12-17T11:37:41.307Z,39.23
2022-12-17T11:40:43.869Z,40.03
2022-12-17T11:43:43.358Z,40.70
2022-12-17T11:46:46.353Z,42.47
2022-12-17T11:49:44.201Z,43.87
2022-12-17T11:52:36.272Z,42.80
2022-12-17T11:56:03.151Z,42.43
2022-12-17T11:58:59.777Z,42.00
2022-12-17T12:02:12.626Z,42.47
2022-12-17T12:05:29.431Z,40.80
2022-12-17T12:08:37.376Z,45.77
2022-12-17T12:11:35.567Z,42.03
2022-12-17T12:14:42.129Z,45.40
2022-12-17T12:17:58.353Z,45.23
2022-12-17T12:21:18.079Z,42.73
2022-12-17T12:24:29.023Z,43.97
2022-12-17T12:27:30.960Z,45.57
2022-12-17T12:30:25.120Z,46.50
2022-12-17T12:33:30.189Z,44.50
2022-12-17T12:36:20.592Z,40.90
2022-12-17T12:39:11.948Z,35.77
2022-12-17T12:42:04.544Z,38.07
2022-12-17T12:44:59.524Z,38.63
2022-12-17T12:47:59.724Z,35.80
2022-12-17T12:51:03.925Z,34.83
2022-12-17T12:53:49.721Z,35.37
2022-12-17T12:56:53.215Z,35.47
2022-12-17T12:59:47.654Z,37.47
2022-12-17T13:02:51.508Z,34.53
2022-12-17T13:05:34.451Z,37.77
2022-12-17T13:08:23.993Z,35.63
2022-12-17T13:10:53.382Z,35.97
2022-12-17T13:13:34.853Z,34.43
2022-12-17T13:16:20.403Z,35.10
2022-12-17T13:18:47.827Z,35.17
2022-12-17T13:21:15.182Z,41.00
2022-12-17T13:23:43.340Z,35.80
2022-12-17T13:26:23.275Z,34.27
2022-12-17T13:29:10.498Z,35.90
2022-12-17T13:32:19.506Z,34.20
2022-12-17T13:35:33.199Z,36.47
2022-12-17T13:38:19.737Z,34.00
2022-12-17T13:40:54.959Z,34.20
2022-12-17T13:43:26.731Z,31.30
2022-12-17T13:45:55.853Z,35.13
2022-12-17T13:48:28.190Z,35.67
2022-12-17T13:51:04.234Z,32.90
2022-12-17T13:53:35.525Z,30.90
2022-12-17T13:56:03.241Z,32.17
2022-12-17T13:58:34.579Z,35.00
2022-12-17T14:01:18.083Z,36.13
2022-12-17T14:04:06.275Z,39.40
2022-12-17T14:06:37.961Z,37.87
2022-12-17T14:09:06.372Z,38.33
2022-12-17T14:11:52.372Z,38.17
2022-12-17T14:14:32.960Z,39.03
2022-12-17T14:17:01.382Z,39.07
2022-12-17T14:19:30.344Z,39.37
2022-12-17T14:21:58.509Z,40.83
2022-12-17T14:24:29.447Z,38.87
2022-12-17T14:26:59.280Z,39.30
2022-12-17T14:29:31.791Z,42.63
2022-12-17T14:32:02.199Z,41.23
2022-12-17T14:34:40.289Z,41.20
2022-12-17T14:37:17.727Z,39.37
2022-12-17T14:39:47.717Z,39.87
2022-12-17T14:42:27.167Z,45.93
2022-12-17T14:44:56.530Z,42.47
2022-12-17T14:47:29.618Z,36.60
2022-12-17T14:50:06.210Z,39.63
2022-12-17T14:52:44.075Z,38.23
2022-12-17T14:55:31.637Z,41.00
2022-12-17T14:58:08.067Z,38.93
2022-12-17T15:00:39.474Z,40.97
2022-12-17T15:03:11.349Z,42.90
2022-12-17T15:05:38.838Z,39.93
2022-12-17T15:08:06.379Z,41.17
2022-12-17T15:10:33.610Z,44.43
2022-12-17T15:13:01.088Z,43.07
2022-12-17T15:15:28.584Z,38.67
2022-12-17T15:17:56.202Z,38.33
2022-12-17T15:20:23.575Z,38.87
2022-12-17T15:22:52.225Z,37.90
2022-12-17T15:25:20.305Z,36.13
2022-12-17T15:27:47.792Z,38.50
2022-12-17T15:30:17.451Z,37.60
2022-12-17T15:32:45.777Z,40.70
2022-12-17T15:35:14.513Z,40.00
2022-12-17T15:37:41.965Z,39.77
2022-12-17T15:40:12.128Z,39.43
2022-12-17T15:43:04.434Z,35.67
2022-12-17T15:45:33.774Z,35.67
2022-12-17T15:48:01.532Z,41.20
2022-12-17T15:50:30.062Z,37.93
2022-12-17T15:52:57.506Z,41.23
2022-12-17T15:55:25.004Z,41.23
2022-12-17T15:57:52.421Z,38.50
2022-12-17T16:00:20.340Z,41.97
2022-12-17T16:02:49.607Z,40.73
2022-12-17T16:05:17.573Z,41.07
2022-12-17T16:07:44.977Z,41.80
2022-12-17T16:10:13.861Z,42.10
2022-12-17T16:12:41.897Z,48.03
2022-12-17T16:15:10.601Z,42.57
2022-12-17T16:17:38.223Z,43.93
2022-12-17T16:20:06.945Z,47.27
2022-12-17T16:22:34.979Z,43.70
2022-12-17T16:25:02.433Z,44.40
2022-12-17T16:27:29.846Z,52.27
2022-12-17T16:29:57.300Z,45.97
2022-12-17T16:32:24.644Z,42.97
2022-12-17T16:34:52.033Z,41.53
2022-12-17T16:37:19.544Z,41.00
2022-12-17T16:39:47.006Z,41.57
2022-12-17T16:42:14.238Z,35.87
2022-12-17T16:44:41.581Z,39.30
2022-12-17T16:47:10.820Z,31.57
2022-12-17T16:49:38.246Z,35.30
2022-12-17T16:52:05.723Z,31.57
2022-12-17T16:54:33.600Z,30.70
2022-12-17T16:57:02.030Z,27.57
2022-12-17T16:59:30.110Z,28.07
2022-12-17T17:01:57.628Z,24.13
2022-12-17T17:04:25.122Z,28.53
2022-12-17T17:06:55.469Z,23.70
2022-12-17T17:09:24.165Z,25.83
2022-12-17T17:11:54.652Z,24.53
2022-12-17T17:14:22.084Z,22.13
2022-12-17T17:16:49.814Z,25.83
2022-12-17T17:19:18.562Z,20.27
2022-12-17T17:21:52.720Z,24.73
2022-12-17T17:24:22.420Z,19.43
2022-12-17T17:26:51.309Z,17.63
2022-12-17T17:29:18.973Z,18.20
2022-12-17T17:32:09.344Z,16.80
2022-12-17T17:34:37.089Z,16.40
2022-12-17T17:37:04.358Z,19.60
2022-12-17T17:39:33.391Z,17.47
2022-12-17T17:42:02.102Z,16.77
2022-12-17T17:44:29.597Z,17.80
2022-12-17T17:46:56.986Z,19.47
2022-12-17T17:49:25.166Z,18.50
2022-12-17T17:52:08.848Z,15.17
2022-12-17T17:54:39.490Z,21.80
2022-12-17T17:57:07.353Z,16.53
2022-12-17T17:59:34.823Z,19.07
2022-12-17T18:02:03.541Z,13.80
2022-12-17T18:04:31.803Z,16.80
2022-12-17T18:09:46.739Z,14.63
2022-12-17T18:12:32.925Z,14.80
2022-12-17T18:15:17.299Z,15.67
2022-12-17T18:17:50.046Z,17.27
2022-12-17T18:20:17.950Z,17.33
2022-12-17T18:22:46.294Z,14.80
2022-12-17T18:25:15.646Z,15.47
2022-12-17T18:27:44.128Z,14.57
2022-12-17T18:30:12.188Z,14.77
2022-12-17T18:32:39.602Z,15.97
2022-12-17T18:35:07.667Z,17.13
2022-12-17T18:37:35.252Z,15.23
2022-12-17T18:40:03.619Z,14.43
2022-12-17T18:42:49.230Z,14.60
2022-12-17T18:45:17.071Z,14.80
2022-12-17T18:47:44.825Z,16.83
2022-12-17T18:50:12.833Z,18.57
2022-12-17T18:52:41.546Z,16.27
2022-12-17T18:55:12.256Z,16.13
2022-12-17T18:57:41.090Z,18.87
2022-12-17T19:00:09.263Z,16.60
2022-12-17T19:02:36.776Z,15.20
2022-12-17T19:05:04.704Z,17.10
2022-12-17T19:07:32.113Z,15.77
2022-12-17T19:09:59.503Z,18.33
2022-12-17T19:12:26.803Z,16.87
2022-12-17T19:14:54.112Z,20.40
2022-12-17T19:17:21.549Z,22.70
2022-12-17T19:19:49.057Z,15.73
2022-12-17T19:22:16.393Z,17.73
2022-12-17T19:24:43.774Z,17.20
2022-12-17T19:27:11.193Z,16.80
2022-12-17T19:29:38.551Z,14.50
2022-12-17T19:32:05.861Z,14.97
2022-12-17T19:34:35.186Z,14.83
2022-12-17T19:37:03.100Z,17.07
2022-12-17T19:39:30.476Z,15.27
2022-12-17T19:41:57.915Z,14.30
2022-12-17T19:44:25.523Z,13.07
2022-12-17T19:46:53.117Z,13.90
2022-12-17T19:49:20.631Z,12.97
2022-12-17T19:51:48.211Z,11.50
2022-12-17T19:54:15.722Z,13.50
2022-12-17T19:56:45.138Z,14.30
2022-12-17T19:59:13.442Z,11.27
2022-12-17T20:01:44.740Z,13.03
2022-12-17T20:04:14.926Z,11.40
2022-12-17T20:06:44.071Z,11.53
2022-12-17T20:09:11.857Z,14.93
2022-12-17T20:11:39.612Z,12.40
2022-12-17T20:14:17.141Z,12.83
2022-12-17T20:16:46.947Z,11.20
2022-12-17T20:19:34.719Z,10.87
2022-12-17T20:22:04.705Z,14.17
2022-12-17T20:24:32.472Z,12.03
2022-12-17T20:27:01.232Z,12.27
2022-12-17T20:29:29.372Z,10.67
2022-12-17T20:31:56.862Z,12.17
2022-12-17T20:34:25.165Z,11.30
2022-12-17T20:36:53.885Z,13.70
2022-12-17T20:39:26.674Z,10.87
2022-12-17T20:41:54.740Z,12.90
2022-12-17T20:44:22.126Z,10.33
2022-12-17T20:46:49.391Z,12.27
2022-12-17T20:49:16.685Z,11.37
2022-12-17T20:51:44.599Z,12.27
2022-12-17T20:54:12.001Z,12.63
2022-12-17T20:56:40.218Z,11.10
2022-12-17T20:59:13.493Z,12.50
2022-12-17T21:01:41.149Z,13.33
2022-12-17T21:04:08.623Z,13.03
2022-12-17T21:06:38.974Z,12.47
2022-12-17T21:09:07.486Z,17.50
2022-12-17T21:11:36.775Z,13.03
2022-12-17T21:14:12.658Z,15.87
2022-12-17T21:16:41.565Z,14.27
2022-12-17T21:19:11.473Z,14.87
2022-12-17T21:21:38.977Z,12.70
2022-12-17T21:24:07.231Z,11.23
2022-12-17T21:26:36.829Z,12.23
2022-12-17T21:29:06.569Z,12.13
2022-12-17T21:31:38.380Z,12.97
2022-12-17T21:34:07.699Z,12.30
2022-12-17T21:36:36.388Z,14.23
2022-12-17T21:39:08.927Z,19.57
2022-12-17T21:41:42.558Z,15.97
2022-12-17T21:44:15.467Z,12.47
2022-12-17T21:46:44.097Z,10.83
2022-12-17T21:49:16.932Z,11.50
2022-12-17T21:51:44.632Z,12.77
2022-12-17T21:54:17.290Z,15.30
2022-12-17T21:56:47.858Z,13.97
2022-12-17T21:59:15.723Z,14.90
2022-12-17T22:01:43.282Z,13.83
2022-12-17T22:04:11.308Z,10.60
2022-12-17T22:06:40.555Z,11.00
2022-12-17T22:09:37.162Z,12.87
2022-12-17T22:12:21.291Z,10.97
2022-12-17T22:14:48.668Z,9.93
2022-12-17T22:17:16.422Z,14.07
2022-12-17T22:19:43.656Z,15.90
2022-12-17T22:22:10.986Z,11.10
2022-12-17T22:24:38.522Z,13.53
2022-12-17T22:27:08.812Z,11.23
2022-12-17T22:29:56.202Z,9.73
2022-12-17T22:32:42.253Z,11.10
2022-12-17T22:35:59.034Z,11.83
2022-12-17T22:41:28.509Z,13.03
2022-12-17T22:44:31.064Z,11.50
2022-12-17T22:44:38.995Z,12.17
2022-12-17T22:46:20.319Z,12.13
2022-12-17T22:48:47.827Z,11.43
2022-12-17T22:51:21.099Z,10.63
2022-12-17T22:53:54.410Z,10.43
2022-12-17T22:56:37.417Z,9.90
2022-12-17T22:59:16.387Z,10.23
2022-12-17T23:01:44.436Z,10.43
2022-12-17T23:04:16.218Z,9.83
2022-12-17T23:06:47.879Z,10.97
2022-12-17T23:09:19.421Z,11.70
2022-12-17T23:11:48.707Z,11.50
2022-12-17T23:14:17.261Z,11.20
2022-12-17T23:16:44.734Z,12.83
2022-12-17T23:19:13.641Z,10.03
2022-12-17T23:21:40.992Z,10.30
2022-12-17T23:24:08.937Z,10.80
2022-12-17T23:26:37.496Z,11.83
2022-12-17T23:29:09.209Z,8.40
2022-12-17T23:31:38.568Z,10.27
2022-12-17T23:34:06.960Z,9.87
2022-12-17T23:36:35.424Z,9.00
2022-12-17T23:39:02.839Z,8.97
2022-12-17T23:41:31.438Z,10.17
2022-12-17T23:43:59.837Z,8.93
2022-12-17T23:46:30.503Z,10.30
2022-12-17T23:48:58.035Z,11.70
2022-12-17T23:51:26.700Z,8.83
2022-12-17T23:53:53.967Z,10.13
2022-12-17T23:56:24.586Z,9.93
2022-12-17T23:58:57.293Z,10.70
